createdAt,value
2022-08-17T00:00:43.645Z,100.00
2022-08-17T00:03:20.779Z,100.00
2022-08-17T00:05:55.635Z,100.00
2022-08-17T00:08:30.754Z,100.00
2022-08-17T00:10:59.711Z,100.00
2022-08-17T00:13:27.727Z,100.00
2022-08-17T00:16:08.830Z,100.00
2022-08-17T00:19:01.979Z,100.00
2022-08-17T00:21:25.588Z,100.00
2022-08-17T00:23:54.883Z,100.00
2022-08-17T00:26:44.855Z,100.00
2022-08-17T00:29:19.385Z,100.00
2022-08-17T00:31:48.044Z,100.00
2022-08-17T00:34:16.444Z,100.00
2022-08-17T00:36:44.158Z,100.00
2022-08-17T00:39:11.913Z,100.00
2022-08-17T00:41:42.170Z,100.00
2022-08-17T00:44:12.288Z,100.00
2022-08-17T00:46:44.043Z,100.00
2022-08-17T00:49:14.390Z,100.00
2022-08-17T00:51:44.642Z,100.00
2022-08-17T00:54:27.210Z,100.00
2022-08-17T00:57:00.770Z,100.00
2022-08-17T00:59:40.016Z,100.00
2022-08-17T01:02:12.621Z,100.00
2022-08-17T01:04:42.476Z,100.00
2022-08-17T01:07:12.197Z,100.00
2022-08-17T01:09:41.515Z,100.00
2022-08-17T01:12:10.815Z,100.00
2022-08-17T01:14:39.847Z,100.00
2022-08-17T01:17:09.335Z,100.00
2022-08-17T01:19:42.080Z,100.00
2022-08-17T01:22:12.938Z,100.00
2022-08-17T01:24:57.620Z,100.00
2022-08-17T01:27:27.445Z,100.00
2022-08-17T01:30:00.265Z,100.00
2022-08-17T01:32:30.486Z,100.00
2022-08-17T01:34:58.974Z,100.00
2022-08-17T01:37:35.375Z,100.00
2022-08-17T01:40:13.077Z,100.00
2022-08-17T01:43:11.433Z,100.00
2022-08-17T01:45:46.347Z,100.00
2022-08-17T01:48:14.495Z,100.00
2022-08-17T01:50:44.582Z,100.00
2022-08-17T01:53:36.837Z,100.00
2022-08-17T01:56:12.175Z,100.00
2022-08-17T01:58:42.944Z,100.00
2022-08-17T02:01:14.268Z,100.00
2022-08-17T02:03:56.304Z,100.00
2022-08-17T02:06:47.115Z,100.00
2022-08-17T02:09:29.914Z,100.00
2022-08-17T02:12:47.437Z,100.00
2022-08-17T02:14:48.306Z,100.00
2022-08-17T02:17:16.518Z,100.00
2022-08-17T02:19:44.300Z,100.00
2022-08-17T02:22:12.271Z,100.00
2022-08-17T02:24:58.256Z,100.00
2022-08-17T02:27:28.663Z,100.00
2022-08-17T02:29:57.669Z,100.00
2022-08-17T02:32:27.871Z,100.00
2022-08-17T02:34:58.137Z,100.00
2022-08-17T02:37:27.943Z,100.00
2022-08-17T02:39:59.588Z,100.00
2022-08-17T02:42:34.137Z,100.00
2022-08-17T02:45:05.242Z,100.00
2022-08-17T02:47:34.046Z,100.00
2022-08-17T02:50:02.115Z,100.00
2022-08-17T02:52:42.797Z,100.00
2022-08-17T02:55:20.966Z,100.00
2022-08-17T02:57:49.399Z,100.00
2022-08-17T03:00:28.930Z,100.00
2022-08-17T03:02:57.979Z,100.00
2022-08-17T03:05:30.856Z,100.00
2022-08-17T03:07:58.769Z,100.00
2022-08-17T03:10:27.278Z,100.00
2022-08-17T03:12:55.813Z,100.00
2022-08-17T03:15:30.519Z,100.00
2022-08-17T03:18:00.385Z,100.00
2022-08-17T03:20:30.700Z,100.00
2022-08-17T03:23:03.004Z,100.00
2022-08-17T03:25:38.028Z,100.00
2022-08-17T03:28:07.455Z,100.00
2022-08-17T03:30:36.876Z,100.00
2022-08-17T03:33:07.213Z,100.00
2022-08-17T03:35:37.732Z,100.00
2022-08-17T03:38:07.497Z,100.00
2022-08-17T03:40:58.908Z,100.00
2022-08-17T03:43:24.063Z,100.00
2022-08-17T03:46:33.899Z,100.00
2022-08-17T03:49:17.777Z,100.00
2022-08-17T03:52:04.227Z,100.00
2022-08-17T03:54:51.009Z,100.00
2022-08-17T03:57:19.353Z,100.00
2022-08-17T03:59:47.891Z,100.00
2022-08-17T04:02:33.248Z,100.00
2022-08-17T04:05:01.868Z,100.00
2022-08-17T04:07:31.047Z,100.00
2022-08-17T04:09:59.562Z,100.00
2022-08-17T04:12:31.217Z,100.00
2022-08-17T04:14:59.543Z,100.00
2022-08-17T04:17:29.394Z,100.00
2022-08-17T04:19:58.102Z,100.00
2022-08-17T04:22:31.454Z,100.00
2022-08-17T04:25:09.928Z,100.00
2022-08-17T04:27:37.816Z,100.00
2022-08-17T04:30:07.495Z,100.00
2022-08-17T04:33:19.197Z,100.00
2022-08-17T04:35:47.732Z,100.00
2022-08-17T04:38:18.792Z,100.00
2022-08-17T04:41:05.939Z,100.00
2022-08-17T04:43:35.270Z,100.00
2022-08-17T04:46:09.098Z,100.00
2022-08-17T04:48:42.832Z,100.00
2022-08-17T04:51:19.963Z,100.00
2022-08-17T04:53:54.894Z,100.00
2022-08-17T04:56:25.969Z,100.00
2022-08-17T04:58:56.644Z,100.00
2022-08-17T05:01:28.119Z,100.00
2022-08-17T05:04:02.357Z,100.00
2022-08-17T05:06:50.332Z,100.00
2022-08-17T05:09:19.075Z,100.00
2022-08-17T05:11:47.057Z,100.00
2022-08-17T05:14:15.145Z,100.00
2022-08-17T05:16:43.178Z,100.00
2022-08-17T05:19:11.008Z,99.14
2022-08-17T05:21:39.130Z,97.80
2022-08-17T05:24:07.192Z,96.71
2022-08-17T05:26:55.105Z,94.04
2022-08-17T05:29:23.247Z,91.92
2022-08-17T05:32:38.322Z,88.86
2022-08-17T05:35:00.533Z,86.39
2022-08-17T05:37:29.156Z,85.20
2022-08-17T05:39:57.231Z,84.88
2022-08-17T05:42:25.218Z,84.71
2022-08-17T05:44:56.681Z,84.42
2022-08-17T05:47:26.927Z,83.27
2022-08-17T05:49:55.624Z,82.63
2022-08-17T05:52:44.853Z,81.66
2022-08-17T05:55:50.756Z,81.13
2022-08-17T05:58:39.006Z,79.26
2022-08-17T06:01:20.955Z,78.88
2022-08-17T06:03:48.810Z,77.80
2022-08-17T06:06:40.719Z,77.04
2022-08-17T06:09:33.022Z,77.77
2022-08-17T06:12:07.763Z,77.57
2022-08-17T06:15:03.906Z,76.52
2022-08-17T06:17:33.204Z,76.33
2022-08-17T06:20:14.767Z,76.47
2022-08-17T06:22:50.691Z,75.57
2022-08-17T06:25:33.788Z,74.29
2022-08-17T06:28:14.770Z,73.52
2022-08-17T06:30:59.743Z,71.38
2022-08-17T06:33:38.477Z,69.23
2022-08-17T06:36:15.943Z,68.13
2022-08-17T06:38:57.327Z,66.53
2022-08-17T06:41:45.703Z,66.11
2022-08-17T06:44:50.249Z,64.49
2022-08-17T06:47:28.766Z,64.63
2022-08-17T06:50:22.156Z,64.70
2022-08-17T06:53:01.642Z,64.34
2022-08-17T06:55:38.422Z,63.14
2022-08-17T06:58:16.492Z,60.02
2022-08-17T07:00:47.732Z,60.52
2022-08-17T07:03:47.968Z,59.72
2022-08-17T07:06:19.954Z,59.12
2022-08-17T07:08:56.589Z,59.50
2022-08-17T07:11:48.163Z,58.98
2022-08-17T07:14:24.624Z,57.42
2022-08-17T07:16:56.244Z,54.70
2022-08-17T07:19:31.869Z,51.64
2022-08-17T07:22:11.470Z,50.52
2022-08-17T07:24:45.231Z,50.93
2022-08-17T07:27:21.431Z,52.35
2022-08-17T07:30:00.916Z,52.52
2022-08-17T07:32:46.434Z,53.33
2022-08-17T07:35:37.942Z,52.42
2022-08-17T07:38:26.918Z,53.48
2022-08-17T07:40:58.122Z,52.73
2022-08-17T07:43:39.370Z,49.82
2022-08-17T07:46:35.335Z,44.49
2022-08-17T07:49:03.667Z,39.55
2022-08-17T07:51:39.328Z,36.69
2022-08-17T07:54:16.770Z,36.40
2022-08-17T07:57:13.349Z,35.79
2022-08-17T08:00:16.132Z,34.40
2022-08-17T08:02:47.802Z,34.13
2022-08-17T08:05:49.276Z,35.82
2022-08-17T08:08:25.487Z,39.08
2022-08-17T08:11:27.978Z,41.85
2022-08-17T08:13:58.522Z,44.16
2022-08-17T08:16:29.817Z,45.45
2022-08-17T08:19:00.534Z,40.70
2022-08-17T08:21:42.204Z,36.49
2022-08-17T08:24:10.945Z,32.08
2022-08-17T08:26:50.202Z,30.42
2022-08-17T08:29:46.279Z,28.58
2022-08-17T08:32:42.914Z,26.82
2022-08-17T08:35:26.827Z,25.84
2022-08-17T08:38:20.194Z,28.19
2022-08-17T08:41:25.494Z,29.50
2022-08-17T08:44:05.031Z,31.22
2022-08-17T08:46:58.654Z,33.42
2022-08-17T08:50:03.491Z,32.29
2022-08-17T08:52:48.401Z,32.58
2022-08-17T08:55:34.470Z,30.88
2022-08-17T08:58:32.289Z,33.69
2022-08-17T09:01:25.473Z,37.10
2022-08-17T09:04:25.824Z,39.18
2022-08-17T09:07:15.548Z,38.71
2022-08-17T09:09:59.206Z,37.18
2022-08-17T09:12:44.401Z,34.29
2022-08-17T09:15:22.166Z,32.12
2022-08-17T09:19:01.090Z,29.86
2022-08-17T09:21:34.817Z,27.52
2022-08-17T09:24:12.829Z,26.56
2022-08-17T09:26:51.305Z,26.30
2022-08-17T09:29:24.442Z,25.97
2022-08-17T09:32:03.740Z,24.94
2022-08-17T09:34:48.355Z,24.95
2022-08-17T09:37:46.867Z,26.55
2022-08-17T09:40:44.090Z,29.19
2022-08-17T09:43:41.203Z,31.91
2022-08-17T09:46:34.297Z,32.19
2022-08-17T09:49:23.159Z,32.47
2022-08-17T09:52:03.310Z,31.05
2022-08-17T09:54:38.977Z,29.87
2022-08-17T09:57:30.184Z,30.38
2022-08-17T10:00:16.782Z,29.63
2022-08-17T10:02:56.961Z,30.35
2022-08-17T10:06:21.623Z,32.43
2022-08-17T10:09:13.689Z,35.00
2022-08-17T10:12:23.025Z,37.23
2022-08-17T10:15:09.838Z,39.16
2022-08-17T10:17:46.953Z,39.20
2022-08-17T10:20:30.905Z,36.49
2022-08-17T10:23:46.648Z,36.44
2022-08-17T10:26:25.035Z,36.95
2022-08-17T10:29:06.787Z,37.96
2022-08-17T10:31:42.652Z,38.60
2022-08-17T10:34:25.374Z,39.87
2022-08-17T10:37:15.140Z,40.17
2022-08-17T10:39:54.725Z,39.25
2022-08-17T10:42:32.799Z,39.18
2022-08-17T10:45:28.172Z,38.77
2022-08-17T10:48:06.245Z,38.06
2022-08-17T10:50:57.744Z,38.91
2022-08-17T10:53:40.764Z,38.72
2022-08-17T10:56:14.695Z,38.11
2022-08-17T10:58:59.195Z,39.21
2022-08-17T11:01:32.319Z,40.78
2022-08-17T11:04:17.679Z,42.18
2022-08-17T11:07:41.584Z,43.47
2022-08-17T11:10:54.804Z,43.63
2022-08-17T11:14:06.890Z,43.83
2022-08-17T11:16:53.743Z,43.79
2022-08-17T11:19:39.468Z,43.71
2022-08-17T11:22:29.971Z,43.90
2022-08-17T11:25:20.361Z,42.54
2022-08-17T11:28:04.375Z,41.34
2022-08-17T11:30:47.045Z,40.89
2022-08-17T11:33:36.855Z,40.92
2022-08-17T11:36:14.540Z,40.98
2022-08-17T11:39:13.256Z,41.44
2022-08-17T11:42:05.916Z,42.30
2022-08-17T11:44:52.796Z,42.62
2022-08-17T11:48:27.983Z,43.02
2022-08-17T11:51:18.027Z,43.82
2022-08-17T11:53:46.069Z,43.34
2022-08-17T11:56:34.787Z,43.00
2022-08-17T11:59:23.149Z,43.79
2022-08-17T12:01:55.840Z,44.16
2022-08-17T12:04:30.603Z,44.86
2022-08-17T12:07:17.742Z,45.24
2022-08-17T12:09:50.960Z,44.14
2022-08-17T12:12:33.011Z,44.90
2022-08-17T12:15:10.497Z,44.98
2022-08-17T12:17:42.647Z,45.47
2022-08-17T12:20:23.482Z,46.94
2022-08-17T12:22:56.589Z,46.52
2022-08-17T12:25:51.450Z,43.81
2022-08-17T12:28:33.268Z,43.10
2022-08-17T12:31:07.273Z,41.35
2022-08-17T12:33:37.415Z,41.19
2022-08-17T12:36:08.703Z,41.55
2022-08-17T12:38:38.135Z,40.79
2022-08-17T12:41:26.598Z,41.26
2022-08-17T12:44:23.194Z,42.14
2022-08-17T12:46:59.760Z,43.40
2022-08-17T12:49:34.249Z,44.16
2022-08-17T12:52:23.681Z,44.52
2022-08-17T12:55:25.582Z,42.91
2022-08-17T12:58:01.846Z,44.25
2022-08-17T13:00:34.783Z,44.15
2022-08-17T13:03:13.225Z,44.25
2022-08-17T13:06:03.251Z,44.13
2022-08-17T13:08:36.646Z,44.88
2022-08-17T13:11:29.511Z,44.59
2022-08-17T13:14:08.347Z,44.51
2022-08-17T13:16:36.394Z,45.33
2022-08-17T13:19:12.818Z,45.59
2022-08-17T13:22:04.343Z,46.79
2022-08-17T13:24:38.572Z,47.11
2022-08-17T13:27:11.819Z,46.97
2022-08-17T13:29:45.343Z,46.74
2022-08-17T13:32:43.967Z,45.52
2022-08-17T13:35:39.839Z,44.38
2022-08-17T13:38:15.470Z,43.15
2022-08-17T13:40:53.163Z,42.71
2022-08-17T13:43:45.061Z,44.00
2022-08-17T13:46:19.708Z,42.31
2022-08-17T13:49:09.529Z,42.56
2022-08-17T13:51:44.640Z,42.87
2022-08-17T13:54:40.099Z,42.57
2022-08-17T13:57:23.285Z,44.15
2022-08-17T14:00:05.958Z,43.34
2022-08-17T14:02:35.936Z,43.96
2022-08-17T14:05:06.388Z,44.37
2022-08-17T14:07:39.928Z,45.62
2022-08-17T14:10:17.438Z,45.44
2022-08-17T14:12:45.819Z,46.67
2022-08-17T14:15:16.448Z,46.69
2022-08-17T14:17:44.192Z,47.63
2022-08-17T14:20:13.441Z,47.85
2022-08-17T14:22:46.370Z,48.26
2022-08-17T14:25:19.607Z,48.75
2022-08-17T14:27:53.564Z,48.92
2022-08-17T14:30:29.889Z,48.58
2022-08-17T14:32:58.784Z,49.14
2022-08-17T14:35:28.855Z,49.97
2022-08-17T14:37:57.189Z,49.85
2022-08-17T14:40:25.806Z,49.07
2022-08-17T14:42:55.483Z,49.42
2022-08-17T14:45:30.336Z,49.78
2022-08-17T14:48:07.721Z,49.33
2022-08-17T14:50:38.834Z,48.57
2022-08-17T14:53:08.774Z,48.35
2022-08-17T14:55:39.942Z,48.79
2022-08-17T14:58:09.105Z,49.02
2022-08-17T15:00:37.832Z,47.57
2022-08-17T15:03:05.638Z,46.02
2022-08-17T15:05:36.611Z,45.91
2022-08-17T15:08:05.896Z,46.12
2022-08-17T15:10:35.505Z,44.82
2022-08-17T15:13:03.334Z,43.68
2022-08-17T15:15:31.531Z,43.75
2022-08-17T15:18:00.063Z,43.48
2022-08-17T15:20:29.831Z,43.83
2022-08-17T15:22:59.056Z,44.00
2022-08-17T15:25:29.411Z,44.53
2022-08-17T15:27:57.269Z,45.28
2022-08-17T15:30:26.555Z,45.69
2022-08-17T15:32:57.428Z,46.36
2022-08-17T15:35:29.081Z,46.86
2022-08-17T15:38:07.845Z,47.42
2022-08-17T15:40:45.139Z,48.31
2022-08-17T15:43:28.222Z,49.27
2022-08-17T15:46:12.564Z,50.44
2022-08-17T15:48:42.444Z,51.35
2022-08-17T15:51:23.383Z,52.34
2022-08-17T15:53:57.214Z,52.86
2022-08-17T15:56:26.126Z,53.35
2022-08-17T15:58:55.228Z,52.99
2022-08-17T16:02:14.269Z,53.71
2022-08-17T16:04:26.958Z,53.90
2022-08-17T16:07:00.028Z,54.10
2022-08-17T16:09:28.553Z,54.30
2022-08-17T16:11:56.643Z,54.26
2022-08-17T16:14:32.423Z,54.49
2022-08-17T16:17:04.596Z,54.65
2022-08-17T16:19:34.279Z,54.71
2022-08-17T16:22:02.596Z,55.37
2022-08-17T16:24:31.370Z,55.22
2022-08-17T16:26:59.123Z,54.97
2022-08-17T16:29:26.815Z,54.75
2022-08-17T16:31:54.934Z,54.59
2022-08-17T16:34:22.705Z,54.20
2022-08-17T16:36:55.167Z,54.63
2022-08-17T16:39:27.177Z,55.27
2022-08-17T16:41:56.096Z,55.03
2022-08-17T16:44:25.839Z,55.62
2022-08-17T16:46:53.776Z,55.88
2022-08-17T16:49:31.539Z,56.61
2022-08-17T16:52:10.399Z,56.99
2022-08-17T16:54:43.832Z,57.07
2022-08-17T16:57:13.355Z,57.68
2022-08-17T16:59:44.928Z,57.96
2022-08-17T17:02:23.621Z,58.54
2022-08-17T17:05:16.062Z,59.07
2022-08-17T17:08:03.345Z,59.61
2022-08-17T17:10:38.745Z,60.04
2022-08-17T17:13:17.108Z,60.58
2022-08-17T17:15:44.788Z,61.25
2022-08-17T17:18:14.840Z,61.41
2022-08-17T17:20:54.806Z,62.10
2022-08-17T17:23:44.821Z,62.93
2022-08-17T17:26:49.290Z,63.88
2022-08-17T17:29:26.744Z,64.19
2022-08-17T17:32:17.283Z,65.24
2022-08-17T17:34:50.911Z,65.73
2022-08-17T17:37:26.159Z,66.23
2022-08-17T17:39:59.841Z,67.01
2022-08-17T17:42:31.496Z,67.21
2022-08-17T17:45:08.715Z,67.80
2022-08-17T17:47:36.656Z,68.84
2022-08-17T17:50:06.425Z,69.46
2022-08-17T17:52:47.415Z,70.06
2022-08-17T17:55:43.406Z,70.79
2022-08-17T17:58:32.044Z,71.75
2022-08-17T18:01:24.578Z,72.65
2022-08-17T18:04:20.634Z,73.14
2022-08-17T18:06:51.965Z,73.56
2022-08-17T18:09:51.937Z,74.05
2022-08-17T18:12:37.228Z,74.61
2022-08-17T18:15:13.727Z,75.01
2022-08-17T18:18:02.886Z,75.28
2022-08-17T18:20:43.209Z,75.73
2022-08-17T18:23:23.165Z,76.10
2022-08-17T18:25:56.612Z,76.51
2022-08-17T18:28:26.780Z,77.32
2022-08-17T18:31:20.077Z,77.97
2022-08-17T18:34:45.518Z,79.32
2022-08-17T18:37:05.198Z,80.41
2022-08-17T18:39:33.821Z,81.25
2022-08-17T18:42:03.860Z,82.01
2022-08-17T18:44:43.966Z,82.81
2022-08-17T18:47:14.647Z,83.62
2022-08-17T18:50:10.824Z,84.60
2022-08-17T18:52:38.747Z,84.98
2022-08-17T18:55:08.482Z,85.67
2022-08-17T18:58:07.662Z,86.48
2022-08-17T19:00:38.298Z,87.51
2022-08-17T19:03:18.045Z,88.34
2022-08-17T19:05:52.369Z,89.05
2022-08-17T19:08:20.239Z,89.54
2022-08-17T19:10:58.415Z,90.18
2022-08-17T19:13:35.436Z,90.51
2022-08-17T19:16:17.716Z,90.92
2022-08-17T19:18:53.833Z,91.12
2022-08-17T19:21:34.441Z,91.63
2022-08-17T19:24:11.714Z,91.63
2022-08-17T19:26:55.457Z,91.78
2022-08-17T19:29:51.805Z,92.05
2022-08-17T19:32:26.287Z,92.31
2022-08-17T19:34:55.105Z,92.94
2022-08-17T19:37:44.742Z,93.38
2022-08-17T19:43:50.487Z,95.51
2022-08-17T19:46:26.170Z,96.02
2022-08-17T19:49:08.543Z,96.89
2022-08-17T19:52:22.439Z,97.18
2022-08-17T19:55:31.554Z,97.77
2022-08-17T19:58:19.175Z,98.39
2022-08-17T20:00:53.497Z,98.92
2022-08-17T20:03:35.075Z,99.89
2022-08-17T20:06:13.029Z,100.00
2022-08-17T20:09:14.650Z,100.00
2022-08-17T20:11:49.227Z,100.00
2022-08-17T20:14:36.289Z,100.00
2022-08-17T20:17:05.847Z,100.00
2022-08-17T20:19:53.334Z,100.00
2022-08-17T20:22:52.486Z,100.00
2022-08-17T20:25:32.420Z,100.00
2022-08-17T20:28:27.877Z,100.00
2022-08-17T20:30:56.275Z,100.00
2022-08-17T20:33:25.860Z,100.00
2022-08-17T20:36:22.717Z,100.00
2022-08-17T20:38:57.347Z,100.00
2022-08-17T20:41:27.933Z,100.00
2022-08-17T20:43:59.231Z,100.00
2022-08-17T20:46:29.773Z,100.00
2022-08-17T20:49:24.330Z,100.00
2022-08-17T20:52:02.420Z,100.00
2022-08-17T20:54:42.796Z,100.00
2022-08-17T20:57:31.412Z,100.00
2022-08-17T21:00:34.137Z,100.00
2022-08-17T21:03:50.612Z,100.00
2022-08-17T21:06:22.567Z,100.00
2022-08-17T21:08:55.457Z,100.00
2022-08-17T21:12:02.640Z,100.00
2022-08-17T21:14:22.057Z,100.00
2022-08-17T21:17:12.160Z,100.00
2022-08-17T21:20:10.327Z,100.00
2022-08-17T21:23:20.429Z,100.00
2022-08-17T21:25:58.347Z,100.00
2022-08-17T21:29:00.819Z,100.00
2022-08-17T21:31:29.246Z,100.00
2022-08-17T21:34:16.232Z,100.00
2022-08-17T21:36:45.835Z,100.00
2022-08-17T21:39:16.428Z,100.00
2022-08-17T21:41:55.749Z,100.00
2022-08-17T21:44:35.177Z,100.00
2022-08-17T21:47:32.356Z,100.00
2022-08-17T21:50:17.642Z,100.00
2022-08-17T21:52:46.017Z,100.00
2022-08-17T21:55:28.324Z,100.00
2022-08-17T21:58:13.955Z,100.00
2022-08-17T22:00:44.734Z,100.00
2022-08-17T22:03:25.951Z,100.00
2022-08-17T22:05:53.968Z,100.00
2022-08-17T22:08:24.323Z,100.00
2022-08-17T22:11:00.151Z,100.00
2022-08-17T22:13:29.721Z,100.00
2022-08-17T22:16:15.323Z,100.00
2022-08-17T22:18:58.985Z,100.00
2022-08-17T22:21:27.473Z,100.00
2022-08-17T22:24:18.011Z,100.00
2022-08-17T22:27:05.087Z,99.79
2022-08-17T22:29:58.469Z,100.00
2022-08-17T22:32:41.487Z,100.00
2022-08-17T22:35:34.708Z,100.00
2022-08-17T22:38:21.195Z,100.00
2022-08-17T22:41:34.693Z,100.00
2022-08-17T22:44:17.752Z,100.00
2022-08-17T22:46:55.358Z,100.00
2022-08-17T22:49:53.904Z,100.00
2022-08-17T22:52:33.430Z,100.00
2022-08-17T22:55:40.970Z,100.00
2022-08-17T22:58:33.961Z,100.00
2022-08-17T23:01:23.597Z,100.00
2022-08-17T23:04:06.321Z,100.00
2022-08-17T23:06:37.901Z,100.00
2022-08-17T23:09:06.967Z,100.00
2022-08-17T23:11:58.675Z,100.00
2022-08-17T23:14:31.730Z,100.00
2022-08-17T23:17:00.909Z,100.00
2022-08-17T23:19:32.068Z,100.00
2022-08-17T23:22:01.845Z,100.00
2022-08-17T23:24:33.135Z,100.00
2022-08-17T23:27:00.793Z,100.00
2022-08-17T23:29:29.618Z,100.00
2022-08-17T23:32:00.102Z,100.00
2022-08-17T23:34:29.007Z,100.00
2022-08-17T23:36:57.425Z,100.00
2022-08-17T23:39:27.966Z,100.00
2022-08-17T23:42:01.026Z,100.00
2022-08-17T23:44:31.033Z,100.00
2022-08-17T23:46:58.822Z,100.00
2022-08-17T23:49:26.589Z,100.00
2022-08-17T23:51:55.242Z,100.00
2022-08-17T23:54:46.508Z,100.00
2022-08-17T23:57:19.458Z,100.00
2022-08-17T23:59:47.269Z,100.00
